Time;durP1;ratioP1;P1;durP2;ratioP2;P2;SDS_P1;SDS_P2;PMS_P1;PMS_P2;Temp;Humidity;BMP_temperature;BMP_pressure;BME280_temperature;BME280_humidity;BME280_pressure;Samples;Min_cycle;Max_cycle;Signal;HPM_P1;HPM_P2
2021/10/18 00:01:08;;;;;;;;;;;10.50;99.90;;;;;;5130414;27;19919;-82
2021/10/18 00:03:33;;;;;;;;;;;10.50;1.00;;;;;;5130702;27;20367;-82
2021/10/18 00:05:59;;;;;;;;;;;10.40;1.00;;;;;;5131117;27;19927;-81
2021/10/18 00:08:24;;;;;;;;;;;10.40;16.20;;;;;;5131901;27;20414;-82
2021/10/18 00:10:50;;;;;;;;;;;10.30;99.90;;;;;;5131862;27;19918;-82
2021/10/18 00:13:15;;;;;;;;;;;10.30;1.00;;;;;;5125071;27;19912;-82
2021/10/18 00:15:41;;;;;;;;;;;10.30;1.00;;;;;;5133172;27;19911;-82
2021/10/18 00:18:06;;;;;;;;;;;10.20;99.90;;;;;;5130122;27;19907;-81
2021/10/18 00:20:32;;;;;;;;;;;10.20;99.90;;;;;;5130857;27;19933;-82
2021/10/18 00:22:58;;;;;;;;;;;10.20;1.00;;;;;;5134744;27;20351;-81
2021/10/18 00:25:23;;;;;;;;;;;10.20;99.90;;;;;;5126622;27;20006;-81
2021/10/18 00:27:49;;;;;;;;;;;10.10;99.90;;;;;;5123607;27;19919;-81
2021/10/18 00:30:14;;;;;;;;;;;10.10;1.00;;;;;;5120455;27;19908;-81
2021/10/18 00:32:40;;;;;;;;;;;10.10;1.00;;;;;;5126620;27;19919;-81
2021/10/18 00:35:06;;;;;;;;;;;10.10;1.00;;;;;;5117777;27;19911;-82
2021/10/18 00:37:31;;;;;;;;;;;10.00;1.00;;;;;;5130805;27;19908;-81
2021/10/18 00:39:57;;;;;;;;;;;10.00;24.30;;;;;;5124157;27;19952;-81
2021/10/18 00:42:22;;;;;;;;;;;10.00;99.90;;;;;;5130714;27;19920;-82
2021/10/18 00:44:50;;;;;;;;;;;9.90;88.90;;;;;;5124531;27;19960;-81
2021/10/18 00:47:19;;;;;;;;;;;9.90;99.90;;;;;;5129322;27;19960;-81
2021/10/18 00:49:45;;;;;;;;;;;9.80;99.90;;;;;;5129251;27;20287;-81
2021/10/18 00:52:11;;;;;;;;;;;9.70;99.90;;;;;;5126820;27;19912;-81
2021/10/18 00:54:37;;;;;;;;;;;9.70;1.00;;;;;;5118882;27;19911;-81
2021/10/18 00:57:03;;;;;;;;;;;9.60;1.00;;;;;;5125018;27;19916;-83
2021/10/18 00:59:28;;;;;;;;;;;9.60;1.00;;;;;;5129549;27;19916;-82
2021/10/18 01:01:54;;;;;;;;;;;9.50;1.00;;;;;;5127975;27;20365;-82
2021/10/18 01:04:21;;;;;;;;;;;9.60;1.00;;;;;;5123794;27;20271;-82
2021/10/18 01:06:47;;;;;;;;;;;9.60;1.00;;;;;;5127454;27;19911;-82
2021/10/18 01:09:12;;;;;;;;;;;9.60;1.00;;;;;;5122836;27;19923;-82
2021/10/18 01:11:38;;;;;;;;;;;9.50;1.00;;;;;;5127918;27;20264;-82
2021/10/18 01:14:03;;;;;;;;;;;9.50;1.00;;;;;;5133945;27;19918;-82
2021/10/18 01:16:29;;;;;;;;;;;9.50;1.00;;;;;;5133686;27;19911;-82
2021/10/18 01:18:54;;;;;;;;;;;9.50;1.00;;;;;;5120699;27;19915;-82
2021/10/18 01:21:20;;;;;;;;;;;9.40;1.00;;;;;;5124450;27;19929;-82
2021/10/18 01:23:45;;;;;;;;;;;9.40;1.00;;;;;;5121101;27;19961;-82
2021/10/18 01:26:11;;;;;;;;;;;9.30;1.00;;;;;;5122322;27;19924;-82
2021/10/18 01:28:36;;;;;;;;;;;9.30;1.00;;;;;;5135127;27;19935;-82
2021/10/18 01:31:02;;;;;;;;;;;9.30;1.00;;;;;;5121820;28;19943;-82
2021/10/18 01:33:27;;;;;;;;;;;9.30;1.00;;;;;;5129723;27;19976;-82
2021/10/18 01:35:53;;;;;;;;;;;9.30;1.00;;;;;;5120284;28;19916;-82
2021/10/18 01:38:18;;;;;;;;;;;9.20;1.00;;;;;;5127003;27;19920;-82
2021/10/18 01:40:44;;;;;;;;;;;9.20;1.00;;;;;;5135974;27;19958;-82
2021/10/18 01:43:09;;;;;;;;;;;9.10;1.00;;;;;;5130267;27;19922;-82
2021/10/18 01:45:35;;;;;;;;;;;9.10;1.00;;;;;;5124080;27;20319;-82
2021/10/18 01:48:00;;;;;;;;;;;9.10;1.00;;;;;;5128274;27;20001;-82
2021/10/18 01:50:26;;;;;;;;;;;9.00;99.90;;;;;;5129727;27;19919;-82
2021/10/18 01:52:53;;;;;;;;;;;9.00;99.90;;;;;;5127027;27;19922;-82
2021/10/18 01:55:19;;;;;;;;;;;8.90;99.90;;;;;;5131881;28;20019;-82
2021/10/18 01:57:45;;;;;;;;;;;8.80;99.90;;;;;;5134603;28;19919;-82
2021/10/18 02:00:11;;;;;;;;;;;8.80;99.90;;;;;;5135283;28;20393;-82
2021/10/18 02:02:37;;;;;;;;;;;8.70;1.00;;;;;;5142315;28;19955;-82
2021/10/18 02:05:03;;;;;;;;;;;8.60;1.00;;;;;;5132777;28;19915;-82
2021/10/18 02:07:28;;;;;;;;;;;8.70;99.90;;;;;;5117823;28;19912;-82
2021/10/18 02:09:54;;;;;;;;;;;8.60;99.90;;;;;;5127620;28;20391;-82
2021/10/18 02:12:20;;;;;;;;;;;8.60;1.00;;;;;;5117527;28;20422;-82
2021/10/18 02:14:46;;;;;;;;;;;8.50;1.00;;;;;;5128926;28;19918;-82
2021/10/18 02:17:11;;;;;;;;;;;8.50;1.00;;;;;;5127458;28;20006;-82
2021/10/18 02:19:36;;;;;;;;;;;8.50;1.00;;;;;;5122966;28;19919;-83
2021/10/18 02:22:02;;;;;;;;;;;8.50;1.00;;;;;;5125437;28;19916;-82
2021/10/18 02:24:27;;;;;;;;;;;8.40;1.00;;;;;;5127994;28;20452;-81
2021/10/18 02:26:53;;;;;;;;;;;8.40;99.90;;;;;;5125969;28;19950;-81
2021/10/18 02:29:18;;;;;;;;;;;8.40;99.90;;;;;;5117684;28;19934;-81
2021/10/18 02:31:44;;;;;;;;;;;8.40;99.90;;;;;;5125963;28;19911;-82
2021/10/18 02:34:09;;;;;;;;;;;8.30;21.10;;;;;;5130522;27;20379;-83
2021/10/18 02:36:35;;;;;;;;;;;8.20;1.00;;;;;;5127563;27;20383;-82
2021/10/18 02:39:00;;;;;;;;;;;8.20;1.00;;;;;;5121574;27;19915;-81
2021/10/18 02:41:26;;;;;;;;;;;8.10;99.90;;;;;;5126433;27;19912;-81
2021/10/18 02:43:52;;;;;;;;;;;8.10;99.90;;;;;;5131701;27;19927;-81
2021/10/18 02:46:18;;;;;;;;;;;8.10;99.90;;;;;;5128608;27;19912;-81
2021/10/18 02:48:43;;;;;;;;;;;8.00;99.90;;;;;;5131675;27;20352;-81
2021/10/18 02:51:08;;;;;;;;;;;8.00;91.60;;;;;;5120904;27;20428;-82
2021/10/18 02:53:34;;;;;;;;;;;8.00;1.00;;;;;;5134088;27;19930;-81
2021/10/18 02:55:59;;;;;;;;;;;8.00;1.00;;;;;;5120592;27;20003;-82
2021/10/18 02:58:25;;;;;;;;;;;7.90;1.00;;;;;;5126470;27;20049;-82
2021/10/18 03:00:50;;;;;;;;;;;7.90;1.00;;;;;;5144491;27;19923;-82
2021/10/18 03:03:16;;;;;;;;;;;7.90;1.00;;;;;;5137552;27;20284;-82
2021/10/18 03:05:41;;;;;;;;;;;7.90;1.00;;;;;;5137077;27;19950;-82
2021/10/18 03:08:07;;;;;;;;;;;7.80;99.90;;;;;;5138731;27;19919;-82
2021/10/18 03:10:32;;;;;;;;;;;7.80;99.90;;;;;;5128193;27;19916;-82
2021/10/18 03:12:57;;;;;;;;;;;7.80;99.90;;;;;;5132145;27;19911;-82
2021/10/18 03:15:23;;;;;;;;;;;7.70;99.90;;;;;;5129396;27;19919;-82
2021/10/18 03:17:50;;;;;;;;;;;7.70;99.90;;;;;;5130063;27;19918;-82
2021/10/18 03:20:16;;;;;;;;;;;7.70;99.90;;;;;;5131601;27;19933;-82
2021/10/18 03:22:41;;;;;;;;;;;7.60;99.90;;;;;;5132504;27;19923;-82
2021/10/18 03:25:08;;;;;;;;;;;7.60;99.90;;;;;;5127769;27;19911;-82
2021/10/18 03:27:33;;;;;;;;;;;7.60;99.90;;;;;;5127989;27;19919;-82
2021/10/18 03:29:59;;;;;;;;;;;7.60;99.90;;;;;;5132374;27;19912;-82
2021/10/18 03:32:24;;;;;;;;;;;7.60;99.90;;;;;;5121937;27;19912;-82
2021/10/18 03:34:50;;;;;;;;;;;7.60;99.90;;;;;;5126368;27;19919;-82
2021/10/18 03:37:15;;;;;;;;;;;7.50;99.90;;;;;;5125206;27;19911;-82
2021/10/18 03:39:41;;;;;;;;;;;7.50;99.90;;;;;;5127199;27;20287;-82
2021/10/18 03:42:06;;;;;;;;;;;7.50;99.90;;;;;;5132846;27;19972;-82
2021/10/18 03:44:32;;;;;;;;;;;7.40;99.90;;;;;;5133830;27;19911;-82
2021/10/18 03:46:57;;;;;;;;;;;7.40;99.90;;;;;;5124665;27;20372;-82
2021/10/18 03:49:23;;;;;;;;;;;7.40;99.90;;;;;;5127297;27;19950;-82
2021/10/18 03:51:48;;;;;;;;;;;7.30;99.90;;;;;;5118795;27;19919;-82
2021/10/18 03:54:14;;;;;;;;;;;7.30;1.00;;;;;;5124996;27;20378;-82
2021/10/18 03:56:39;;;;;;;;;;;7.30;1.00;;;;;;5132137;27;20046;-82
2021/10/18 03:59:04;;;;;;;;;;;7.30;99.90;;;;;;5128510;27;20290;-82
2021/10/18 04:01:30;;;;;;;;;;;7.30;99.90;;;;;;5136563;27;19911;-82
2021/10/18 04:03:55;;;;;;;;;;;7.30;99.90;;;;;;5133927;27;19915;-83
2021/10/18 04:06:21;;;;;;;;;;;7.30;1.00;;;;;;5130201;27;19954;-82
2021/10/18 04:08:49;;;;;;;;;;;7.30;1.00;;;;;;5136201;27;20371;-83
2021/10/18 04:11:15;;;;;;;;;;;7.30;99.90;;;;;;5131676;27;19912;-82
2021/10/18 04:13:40;;;;;;;;;;;7.30;99.90;;;;;;5124254;27;19914;-82
2021/10/18 04:16:06;;;;;;;;;;;7.30;99.90;;;;;;5125304;27;20398;-82
2021/10/18 04:18:31;;;;;;;;;;;7.30;99.90;;;;;;5128053;27;19977;-82
2021/10/18 04:20:59;;;;;;;;;;;7.30;99.90;;;;;;5130446;27;19912;-82
2021/10/18 04:23:25;;;;;;;;;;;7.20;99.90;;;;;;5128588;27;19916;-83
2021/10/18 04:25:50;;;;;;;;;;;7.20;99.90;;;;;;5123571;27;19911;-82
2021/10/18 04:28:16;;;;;;;;;;;7.30;99.90;;;;;;5130147;27;20027;-83
2021/10/18 04:30:41;;;;;;;;;;;7.30;99.90;;;;;;5136663;27;19916;-82
2021/10/18 04:33:07;;;;;;;;;;;7.20;99.90;;;;;;5139535;27;19892;-83
2021/10/18 04:35:32;;;;;;;;;;;7.20;99.90;;;;;;5141816;27;19912;-82
2021/10/18 04:37:58;;;;;;;;;;;7.20;68.90;;;;;;5133993;27;19907;-82
2021/10/18 04:40:23;;;;;;;;;;;7.10;1.00;;;;;;5123595;27;19939;-82
2021/10/18 04:42:49;;;;;;;;;;;7.00;1.00;;;;;;5133724;27;19937;-82
2021/10/18 04:45:14;;;;;;;;;;;6.90;1.00;;;;;;5125833;27;19995;-82
2021/10/18 04:47:40;;;;;;;;;;;6.90;99.90;;;;;;5130069;27;19911;-82
2021/10/18 04:50:06;;;;;;;;;;;6.80;99.90;;;;;;5123118;27;19911;-83
2021/10/18 04:52:31;;;;;;;;;;;6.80;99.90;;;;;;5126646;27;19987;-82
2021/10/18 04:54:57;;;;;;;;;;;6.80;1.00;;;;;;5133400;27;19912;-83
2021/10/18 04:57:22;;;;;;;;;;;6.80;1.00;;;;;;5128935;27;19907;-82
2021/10/18 04:59:48;;;;;;;;;;;6.80;1.00;;;;;;5130924;27;19922;-82
2021/10/18 05:02:13;;;;;;;;;;;6.80;1.00;;;;;;5131331;27;19922;-83
2021/10/18 05:04:39;;;;;;;;;;;6.80;1.00;;;;;;5133184;27;19911;-83
2021/10/18 05:07:04;;;;;;;;;;;6.80;1.00;;;;;;5132361;27;19907;-82
2021/10/18 05:09:30;;;;;;;;;;;6.80;1.00;;;;;;5135129;27;19994;-82
2021/10/18 05:11:55;;;;;;;;;;;6.80;1.00;;;;;;5133025;27;19915;-82
2021/10/18 05:14:20;;;;;;;;;;;6.80;1.00;;;;;;5133242;27;19914;-83
2021/10/18 05:16:46;;;;;;;;;;;6.90;1.00;;;;;;5137140;27;19918;-83
2021/10/18 05:19:11;;;;;;;;;;;6.90;1.00;;;;;;5125105;27;19912;-82
2021/10/18 05:21:37;;;;;;;;;;;6.90;1.00;;;;;;5132408;27;19911;-83
2021/10/18 05:24:02;;;;;;;;;;;6.90;99.90;;;;;;5127119;27;19911;-83
2021/10/18 05:26:28;;;;;;;;;;;6.90;1.00;;;;;;5125837;27;19947;-83
2021/10/18 05:28:53;;;;;;;;;;;6.90;1.00;;;;;;5122769;27;19923;-83
2021/10/18 05:31:19;;;;;;;;;;;6.90;1.00;;;;;;5122608;28;19958;-82
2021/10/18 05:33:44;;;;;;;;;;;6.90;1.00;;;;;;5139665;27;19935;-83
2021/10/18 05:36:10;;;;;;;;;;;6.90;1.00;;;;;;5133636;27;19912;-82
2021/10/18 05:38:35;;;;;;;;;;;6.90;1.00;;;;;;5124256;27;19974;-82
2021/10/18 05:41:01;;;;;;;;;;;6.90;1.00;;;;;;5133764;27;19907;-83
2021/10/18 05:43:26;;;;;;;;;;;7.00;1.00;;;;;;5125111;27;19915;-83
2021/10/18 05:45:52;;;;;;;;;;;7.00;1.00;;;;;;5139145;27;19935;-83
2021/10/18 05:48:17;;;;;;;;;;;7.10;1.00;;;;;;5124329;27;19964;-82
2021/10/18 05:50:46;;;;;;;;;;;7.20;1.00;;;;;;5120408;28;19960;-83
2021/10/18 05:53:12;;;;;;;;;;;7.20;99.90;;;;;;5125360;27;19965;-83
2021/10/18 05:55:37;;;;;;;;;;;7.20;99.90;;;;;;5122656;27;19911;-83
2021/10/18 05:58:04;;;;;;;;;;;7.20;99.90;;;;;;5125256;28;20421;-83
2021/10/18 06:00:48;;;;;;;;;;;7.30;99.90;;;;;;5134217;28;20409;-83
2021/10/18 06:03:14;;;;;;;;;;;7.30;99.90;;;;;;5128044;28;19919;-83
2021/10/18 06:05:44;;;;;;;;;;;7.30;99.90;;;;;;5138390;28;20441;-83
2021/10/18 06:08:10;;;;;;;;;;;7.30;99.90;;;;;;5125497;28;19912;-83
2021/10/18 06:10:35;;;;;;;;;;;7.30;99.90;;;;;;5126524;27;19923;-83
2021/10/18 06:13:01;;;;;;;;;;;7.40;99.90;;;;;;5133256;27;19911;-83
2021/10/18 06:15:26;;;;;;;;;;;7.40;99.90;;;;;;5130732;27;19969;-83
2021/10/18 06:17:52;;;;;;;;;;;7.50;99.90;;;;;;5138256;27;19908;-83
2021/10/18 06:20:19;;;;;;;;;;;7.50;99.90;;;;;;5129684;27;19956;-83
2021/10/18 06:22:45;;;;;;;;;;;7.60;99.90;;;;;;5123602;27;19951;-83
2021/10/18 06:25:11;;;;;;;;;;;7.60;99.90;;;;;;5133836;27;19907;-83
2021/10/18 06:27:36;;;;;;;;;;;7.70;99.90;;;;;;5127666;27;19907;-82
2021/10/18 06:30:03;;;;;;;;;;;7.80;99.90;;;;;;5135597;27;19949;-82
2021/10/18 06:32:28;;;;;;;;;;;7.90;99.90;;;;;;5125799;27;19908;-82
2021/10/18 06:34:54;;;;;;;;;;;8.00;69.90;;;;;;5135010;27;19918;-83
2021/10/18 06:37:19;;;;;;;;;;;8.10;1.00;;;;;;5133067;27;19908;-83
2021/10/18 06:39:45;;;;;;;;;;;8.20;1.00;;;;;;5132745;27;20348;-82
2021/10/18 06:42:10;;;;;;;;;;;8.30;1.00;;;;;;5129090;27;19916;-82
2021/10/18 06:44:35;;;;;;;;;;;8.60;1.00;;;;;;5120863;27;19907;-83
2021/10/18 06:47:01;;;;;;;;;;;9.30;1.00;;;;;;5120058;27;19915;-83
2021/10/18 06:49:26;;;;;;;;;;;11.50;20.20;;;;;;5125186;27;19912;-83
2021/10/18 06:51:55;;;;;;;;;;;12.40;99.90;;;;;;5122120;27;19964;-83
2021/10/18 06:54:21;;;;;;;;;;;13.20;99.90;;;;;;5123535;27;19930;-83
2021/10/18 06:56:47;;;;;;;;;;;15.00;98.20;;;;;;5119911;27;19915;-83
2021/10/18 06:59:12;;;;;;;;;;;17.30;1.00;;;;;;5123426;27;19985;-84
2021/10/18 07:01:38;;;;;;;;;;;17.80;99.90;;;;;;5130967;27;20440;-83
2021/10/18 07:04:04;;;;;;;;;;;17.00;99.90;;;;;;5127637;27;19961;-83
2021/10/18 07:06:30;;;;;;;;;;;16.70;99.90;;;;;;5126401;27;19918;-84
2021/10/18 07:08:55;;;;;;;;;;;17.70;99.90;;;;;;5124951;27;19911;-84
2021/10/18 07:11:21;;;;;;;;;;;18.80;99.90;;;;;;5128140;27;21570;-83
2021/10/18 07:13:46;;;;;;;;;;;18.60;99.90;;;;;;5126049;27;20264;-83
2021/10/18 07:16:12;;;;;;;;;;;18.50;99.90;;;;;;5137284;27;20002;-84
2021/10/18 07:18:37;;;;;;;;;;;19.00;99.90;;;;;;5133623;27;19919;-84
2021/10/18 07:21:03;;;;;;;;;;;20.50;99.90;;;;;;5119545;27;19979;-84
2021/10/18 07:23:28;;;;;;;;;;;22.50;99.90;;;;;;5124603;27;19923;-84
2021/10/18 07:25:54;;;;;;;;;;;23.10;99.90;;;;;;5125335;27;19956;-84
2021/10/18 07:28:19;;;;;;;;;;;24.10;99.90;;;;;;5125792;27;19926;-82
2021/10/18 07:30:46;;;;;;;;;;;25.00;99.90;;;;;;5129407;27;19912;-82
2021/10/18 07:33:12;;;;;;;;;;;25.10;99.90;;;;;;5125070;27;19917;-82
2021/10/18 07:35:37;;;;;;;;;;;24.70;99.90;;;;;;5123272;27;20435;-82
2021/10/18 07:38:04;;;;;;;;;;;24.30;99.90;;;;;;5127827;27;19916;-82
2021/10/18 07:40:30;;;;;;;;;;;24.20;99.90;;;;;;5124202;27;19912;-82
2021/10/18 07:42:56;;;;;;;;;;;23.70;99.90;;;;;;5130367;27;19968;-82
2021/10/18 07:45:22;;;;;;;;;;;23.00;99.90;;;;;;5129116;27;19915;-81
2021/10/18 07:47:48;;;;;;;;;;;22.50;99.90;;;;;;5135651;27;19953;-82
2021/10/18 07:50:14;;;;;;;;;;;22.50;99.90;;;;;;5126038;27;20336;-82
2021/10/18 07:52:40;;;;;;;;;;;22.40;99.90;;;;;;5121188;27;19922;-81
2021/10/18 07:55:12;;;;;;;;;;;22.40;99.90;;;;;;5126301;27;19911;-83
2021/10/18 07:57:42;;;;;;;;;;;22.10;99.90;;;;;;5125924;27;20006;-81
2021/10/18 08:00:08;;;;;;;;;;;22.50;99.90;;;;;;5122724;27;19919;-81
2021/10/18 08:02:33;;;;;;;;;;;23.00;99.90;;;;;;5126748;27;19934;-81
2021/10/18 08:04:59;;;;;;;;;;;23.20;99.90;;;;;;5116573;27;19912;-81
2021/10/18 08:07:28;;;;;;;;;;;23.40;99.90;;;;;;5123451;27;19915;-82
2021/10/18 08:09:55;;;;;;;;;;;23.50;99.90;;;;;;5127953;27;19911;-82
2021/10/18 08:12:20;;;;;;;;;;;24.00;99.90;;;;;;5129169;27;19912;-82
2021/10/18 08:14:46;;;;;;;;;;;24.30;99.90;;;;;;5123643;27;19911;-83
2021/10/18 08:17:11;;;;;;;;;;;24.10;99.90;;;;;;5128450;27;19963;-82
2021/10/18 08:19:37;;;;;;;;;;;23.70;99.90;;;;;;5130359;27;19912;-82
2021/10/18 08:22:02;;;;;;;;;;;23.30;99.90;;;;;;5126259;27;19999;-82
2021/10/18 08:24:28;;;;;;;;;;;22.60;99.90;;;;;;5127613;27;19912;-82
2021/10/18 08:26:54;;;;;;;;;;;22.40;99.90;;;;;;5130276;27;19911;-82
2021/10/18 08:29:19;;;;;;;;;;;22.60;99.90;;;;;;5127246;27;20003;-82
2021/10/18 08:31:45;;;;;;;;;;;23.10;99.90;;;;;;5131428;27;19912;-82
2021/10/18 08:34:10;;;;;;;;;;;23.80;99.90;;;;;;5132172;27;19960;-82
2021/10/18 08:36:37;;;;;;;;;;;24.60;99.90;;;;;;5138391;27;19915;-83
2021/10/18 08:41:42;;;;;;;;;;;25.10;99.90;;;;;;5131441;27;19933;-83
2021/10/18 08:44:14;;;;;;;;;;;25.40;99.90;;;;;;5123876;27;19923;-83
2021/10/18 08:46:40;;;;;;;;;;;25.40;99.90;;;;;;5116862;28;19923;-83
2021/10/18 08:49:05;;;;;;;;;;;25.40;99.90;;;;;;5131511;27;19915;-82
2021/10/18 08:51:31;;;;;;;;;;;24.90;99.90;;;;;;5135174;27;20292;-83
2021/10/18 08:53:56;;;;;;;;;;;25.00;99.90;;;;;;5133276;27;20003;-83
2021/10/18 08:56:22;;;;;;;;;;;25.40;99.90;;;;;;5116361;28;19907;-82
2021/10/18 08:58:48;;;;;;;;;;;25.40;99.90;;;;;;5115191;27;19951;-83
2021/10/18 09:01:13;;;;;;;;;;;25.90;99.90;;;;;;5126500;27;19947;-84
2021/10/18 09:03:39;;;;;;;;;;;26.20;99.90;;;;;;5114892;28;19916;-83
2021/10/18 09:06:12;;;;;;;;;;;26.40;99.90;;;;;;5115258;28;19908;-82
2021/10/18 09:08:39;;;;;;;;;;;27.10;99.90;;;;;;5113846;27;19912;-84
2021/10/18 09:11:07;;;;;;;;;;;27.90;99.90;;;;;;5114794;28;19915;-83
2021/10/18 09:13:33;;;;;;;;;;;28.20;99.90;;;;;;5117772;27;19970;-83
2021/10/18 09:15:58;;;;;;;;;;;28.60;99.90;;;;;;5117869;27;19911;-82
2021/10/18 09:18:24;;;;;;;;;;;28.90;99.90;;;;;;5127952;27;19918;-83
2021/10/18 09:20:49;;;;;;;;;;;28.50;99.90;;;;;;5124117;27;19911;-81
2021/10/18 09:23:19;;;;;;;;;;;28.30;99.90;;;;;;5124164;27;20006;-82
2021/10/18 09:25:45;;;;;;;;;;;28.80;99.90;;;;;;5127070;27;19919;-82
2021/10/18 09:28:12;;;;;;;;;;;29.50;99.90;;;;;;5137838;27;19912;-82
2021/10/18 09:30:38;;;;;;;;;;;29.60;99.90;;;;;;5138397;27;19942;-83
2021/10/18 09:33:12;;;;;;;;;;;29.60;99.90;;;;;;5129982;27;20399;-82
2021/10/18 09:35:39;;;;;;;;;;;29.60;99.90;;;;;;5117407;28;19911;-82
2021/10/18 09:38:09;;;;;;;;;;;29.00;99.90;;;;;;5125437;27;19911;-82
2021/10/18 09:40:39;;;;;;;;;;;28.30;99.90;;;;;;5130740;27;20390;-82
2021/10/18 09:43:16;;;;;;;;;;;28.30;99.90;;;;;;5116967;28;19959;-82
2021/10/18 09:46:05;;;;;;;;;;;28.70;99.90;;;;;;5120917;27;19916;-82
2021/10/18 10:52:41;;;;;;;;;;;25.40;99.90;;;;;;5125365;28;19961;-82
2021/10/18 10:55:24;;;;;;;;;;;25.80;99.90;;;;;;5127719;27;19926;-83
2021/10/18 10:57:52;;;;;;;;;;;25.70;99.90;;;;;;5122987;27;19916;-82
2021/10/18 11:00:30;;;;;;;;;;;25.90;99.90;;;;;;5126601;27;19919;-82
2021/10/18 11:03:14;;;;;;;;;;;25.80;99.90;;;;;;5129973;27;19934;-82
2021/10/18 11:05:58;;;;;;;;;;;26.00;99.90;;;;;;5128873;27;19919;-82
2021/10/18 11:08:37;;;;;;;;;;;26.20;99.90;;;;;;5128657;27;19914;-82
2021/10/18 11:11:17;;;;;;;;;;;26.10;99.90;;;;;;5128522;27;19969;-82
2021/10/18 11:13:49;;;;;;;;;;;25.80;99.90;;;;;;5131126;27;19911;-82
2021/10/18 11:16:15;;;;;;;;;;;26.00;99.90;;;;;;5123396;27;19912;-84
2021/10/18 11:18:41;;;;;;;;;;;26.20;99.90;;;;;;5129594;27;19911;-82
2021/10/18 11:21:15;;;;;;;;;;;26.30;99.90;;;;;;5127731;27;19919;-82
2021/10/18 11:23:59;;;;;;;;;;;26.00;99.90;;;;;;5132001;27;20100;-83
2021/10/18 11:26:26;;;;;;;;;;;26.60;99.90;;;;;;5133513;27;19912;-82
2021/10/18 11:28:52;;;;;;;;;;;27.00;99.90;;;;;;5123805;27;20374;-82
2021/10/18 11:31:18;;;;;;;;;;;27.10;99.90;;;;;;5131318;27;19919;-82
2021/10/18 11:34:02;;;;;;;;;;;27.30;99.90;;;;;;5125206;27;20364;-82
2021/10/18 11:36:28;;;;;;;;;;;27.80;99.90;;;;;;5125530;27;19911;-82
2021/10/18 11:39:07;;;;;;;;;;;28.50;99.90;;;;;;5135314;27;19912;-82
2021/10/18 11:41:55;;;;;;;;;;;28.70;99.90;;;;;;5125071;27;19911;-82
2021/10/18 11:44:36;;;;;;;;;;;29.30;99.90;;;;;;5123095;27;19916;-82
2021/10/18 11:47:02;;;;;;;;;;;29.70;99.90;;;;;;5133139;27;20371;-83
2021/10/18 11:49:27;;;;;;;;;;;29.90;99.90;;;;;;5130118;27;19912;-83
2021/10/18 11:51:53;;;;;;;;;;;29.30;99.90;;;;;;5131986;27;19945;-82
2021/10/18 11:54:19;;;;;;;;;;;28.60;99.90;;;;;;5129886;27;19915;-82
2021/10/18 11:56:44;;;;;;;;;;;28.40;99.90;;;;;;5134696;27;19919;-83
2021/10/18 11:59:10;;;;;;;;;;;28.60;99.90;;;;;;5134693;27;20372;-82
2021/10/18 12:01:36;;;;;;;;;;;28.50;99.90;;;;;;5124257;27;19916;-82
2021/10/18 12:04:02;;;;;;;;;;;27.80;99.90;;;;;;5120485;27;19919;-82
2021/10/18 12:06:27;;;;;;;;;;;27.10;99.90;;;;;;5125440;27;20390;-83
2021/10/18 12:08:56;;;;;;;;;;;26.80;99.90;;;;;;5126250;27;19919;-82
2021/10/18 12:11:25;;;;;;;;;;;26.20;99.90;;;;;;5128426;27;20001;-82
2021/10/18 12:13:50;;;;;;;;;;;25.90;99.90;;;;;;5126486;27;20311;-82
2021/10/18 12:16:20;;;;;;;;;;;25.70;99.90;;;;;;5125614;27;19937;-82
2021/10/18 12:18:50;;;;;;;;;;;25.80;99.90;;;;;;5127992;27;19919;-82
2021/10/18 12:21:25;;;;;;;;;;;25.50;99.90;;;;;;5134627;27;19914;-82
2021/10/18 12:23:50;;;;;;;;;;;25.40;99.90;;;;;;5128899;27;19919;-82
2021/10/18 12:26:39;;;;;;;;;;;25.20;99.90;;;;;;5122199;27;20406;-82
2021/10/18 12:29:11;;;;;;;;;;;24.70;99.90;;;;;;5115610;27;19919;-82
2021/10/18 12:31:49;;;;;;;;;;;24.50;99.90;;;;;;5127469;27;19934;-82
2021/10/18 12:34:15;;;;;;;;;;;23.90;99.90;;;;;;5124409;27;19911;-82
2021/10/18 12:36:56;;;;;;;;;;;23.10;99.90;;;;;;5122272;27;19969;-82
2021/10/18 12:39:38;;;;;;;;;;;22.50;99.90;;;;;;5127050;27;20388;-82
2021/10/18 12:42:04;;;;;;;;;;;21.90;99.90;;;;;;5126521;27;19911;-82
2021/10/18 12:44:35;;;;;;;;;;;21.60;99.90;;;;;;5117740;27;20373;-81
2021/10/18 12:47:01;;;;;;;;;;;21.70;99.90;;;;;;5122516;27;19918;-83
2021/10/18 12:49:32;;;;;;;;;;;21.60;99.90;;;;;;5125277;27;19915;-81
2021/10/18 12:52:02;;;;;;;;;;;21.40;99.90;;;;;;5127484;27;20379;-82
2021/10/18 12:54:28;;;;;;;;;;;21.20;99.90;;;;;;5123347;27;19975;-82
2021/10/18 12:57:00;;;;;;;;;;;21.10;99.90;;;;;;5117812;27;19912;-81
2021/10/18 12:59:26;;;;;;;;;;;20.90;99.90;;;;;;5127099;27;19911;-82
2021/10/18 13:02:10;;;;;;;;;;;20.60;99.90;;;;;;5127324;27;19918;-82
2021/10/18 13:04:35;;;;;;;;;;;20.40;99.90;;;;;;5135083;27;20364;-82
2021/10/18 13:07:00;;;;;;;;;;;20.20;99.90;;;;;;5134448;27;19920;-82
2021/10/18 13:09:27;;;;;;;;;;;20.10;99.90;;;;;;5121699;27;19922;-82
2021/10/18 13:11:53;;;;;;;;;;;20.10;99.90;;;;;;5127415;27;19986;-82
2021/10/18 13:14:18;;;;;;;;;;;20.20;99.90;;;;;;5119231;27;19943;-82
2021/10/18 13:16:43;;;;;;;;;;;20.10;99.90;;;;;;5122344;27;19920;-82
2021/10/18 13:19:09;;;;;;;;;;;20.20;99.90;;;;;;5122629;27;19908;-82
2021/10/18 13:21:35;;;;;;;;;;;20.20;99.90;;;;;;5117838;27;19908;-82
2021/10/18 13:24:02;;;;;;;;;;;20.10;99.90;;;;;;5116267;27;19924;-82
2021/10/18 13:26:28;;;;;;;;;;;20.00;99.90;;;;;;5128437;27;20295;-82
2021/10/18 13:28:53;;;;;;;;;;;19.90;99.90;;;;;;5129018;27;19919;-82
2021/10/18 13:31:19;;;;;;;;;;;19.60;99.90;;;;;;5136748;27;19914;-83
2021/10/18 13:33:44;;;;;;;;;;;19.50;99.90;;;;;;5135715;27;19911;-83
2021/10/18 13:36:11;;;;;;;;;;;19.30;99.90;;;;;;5135507;27;19908;-82
2021/10/18 13:38:37;;;;;;;;;;;19.20;99.90;;;;;;5135230;27;19911;-82
2021/10/18 13:41:02;;;;;;;;;;;19.10;99.90;;;;;;5114442;28;20372;-82
2021/10/18 13:43:28;;;;;;;;;;;19.20;99.90;;;;;;5128949;27;19968;-82
2021/10/18 13:45:53;;;;;;;;;;;19.30;99.90;;;;;;5118020;27;19908;-82
2021/10/18 13:48:19;;;;;;;;;;;19.10;99.90;;;;;;5119277;27;19934;-82
2021/10/18 13:50:45;;;;;;;;;;;19.00;99.90;;;;;;5132488;27;19912;-82
2021/10/18 13:53:10;;;;;;;;;;;19.10;99.90;;;;;;5123264;27;19973;-83
2021/10/18 13:55:36;;;;;;;;;;;19.10;99.90;;;;;;5131179;27;19908;-83
2021/10/18 13:58:01;;;;;;;;;;;19.20;99.90;;;;;;5122809;28;19943;-83
2021/10/18 14:00:27;;;;;;;;;;;19.00;99.90;;;;;;5127963;28;19912;-83
2021/10/18 14:02:56;;;;;;;;;;;18.80;99.90;;;;;;5132298;28;19995;-83
2021/10/18 14:05:21;;;;;;;;;;;18.60;99.90;;;;;;5127047;28;19921;-82
2021/10/18 14:07:47;;;;;;;;;;;18.60;99.90;;;;;;5121311;28;19972;-83
2021/10/18 14:10:12;;;;;;;;;;;18.70;99.90;;;;;;5125942;28;19911;-82
2021/10/18 14:12:38;;;;;;;;;;;18.70;99.90;;;;;;5127830;28;19911;-82
2021/10/18 14:15:04;;;;;;;;;;;18.90;99.90;;;;;;5119101;28;20376;-82
2021/10/18 14:17:30;;;;;;;;;;;19.20;99.90;;;;;;5122920;28;19922;-82
2021/10/18 14:19:55;;;;;;;;;;;19.20;99.90;;;;;;5126793;28;19971;-82
2021/10/18 14:22:21;;;;;;;;;;;19.20;99.90;;;;;;5135849;28;19922;-83
2021/10/18 14:24:46;;;;;;;;;;;19.30;99.90;;;;;;5128396;28;20391;-83
2021/10/18 14:27:12;;;;;;;;;;;19.10;99.90;;;;;;5127649;28;20291;-82
2021/10/18 14:29:37;;;;;;;;;;;19.00;99.90;;;;;;5122966;28;19915;-83
2021/10/18 14:32:03;;;;;;;;;;;18.90;99.90;;;;;;5121490;28;20418;-82
2021/10/18 14:34:28;;;;;;;;;;;18.70;99.90;;;;;;5121544;27;19908;-83
2021/10/18 14:36:54;;;;;;;;;;;18.60;99.90;;;;;;5125826;27;19918;-82
2021/10/18 14:39:19;;;;;;;;;;;18.50;99.90;;;;;;5123152;27;20368;-82
2021/10/18 14:41:45;;;;;;;;;;;18.40;99.90;;;;;;5130206;27;19918;-82
2021/10/18 14:44:11;;;;;;;;;;;18.30;99.90;;;;;;5137635;27;19926;-82
2021/10/18 14:46:36;;;;;;;;;;;18.30;99.90;;;;;;5124850;27;19911;-82
2021/10/18 14:49:02;;;;;;;;;;;18.30;99.90;;;;;;5129661;27;19916;-82
2021/10/18 14:51:27;;;;;;;;;;;18.40;99.90;;;;;;5123280;27;19908;-83
2021/10/18 14:53:54;;;;;;;;;;;18.40;99.90;;;;;;5119363;28;19916;-82
2021/10/18 14:56:21;;;;;;;;;;;18.40;99.90;;;;;;5129078;27;19912;-84
2021/10/18 14:58:46;;;;;;;;;;;18.40;99.90;;;;;;5139394;27;19953;-82
2021/10/18 15:01:12;;;;;;;;;;;18.50;99.90;;;;;;5120552;27;20537;-82
2021/10/18 15:03:38;;;;;;;;;;;18.40;99.90;;;;;;5122742;28;19912;-83
2021/10/18 15:06:03;;;;;;;;;;;18.30;99.90;;;;;;5135797;27;19923;-83
2021/10/18 15:08:29;;;;;;;;;;;18.20;99.90;;;;;;5132149;27;19908;-83
2021/10/18 15:10:54;;;;;;;;;;;18.10;99.90;;;;;;5127167;27;20076;-83
2021/10/18 15:13:20;;;;;;;;;;;17.90;99.90;;;;;;5132779;27;19911;-82
2021/10/18 15:15:45;;;;;;;;;;;17.80;99.90;;;;;;5126412;27;19938;-82
2021/10/18 15:18:11;;;;;;;;;;;17.70;99.90;;;;;;5125445;27;20325;-83
2021/10/18 15:20:36;;;;;;;;;;;17.70;99.90;;;;;;5124925;27;19912;-82
2021/10/18 15:23:02;;;;;;;;;;;17.80;99.90;;;;;;5122027;27;20704;-83
2021/10/18 15:25:27;;;;;;;;;;;17.80;99.90;;;;;;5130284;27;20337;-82
2021/10/18 15:27:53;;;;;;;;;;;17.70;99.90;;;;;;5122094;27;19912;-82
2021/10/18 15:30:18;;;;;;;;;;;17.60;99.90;;;;;;5120053;27;20103;-82